Huvudsida
METAR-TAF:

METAR-TAF

Flygplatser :

Reggio di Calabria, Italien

latitud: 38-04N, longitud: 015-39E, höjd: 11 m

Aktuellt väderrapport

Denna rapport gjordes för 25 minuter sedan, klockan 20:50 UTC
Vind 17 kt från nord
Temperatur 17°C
Fuktighet 72%
Tryck 1013 hPa
Sikt 10 km eller mer
Få moln på en höjd av 4000 ft

METAR: LICR 142050Z 36017KT 9999 FEW040 17/12 Q1013

Tid: 22:15 (21:15 UTC)

Väderprognos

Denna rapport gjordes för 4 timmar och 15 minuter sedan, klockan 17:00 UTC
Prognos gäller från 14 kl. 18 UTC till 15 kl. 18 UTC
Vind 18 kt från nord/nordväst i byarna ända upp till 28 kt
Sikt 10 km eller mer
Spridda moln på en höjd av 3000 ft
Blir
från 14 kl. 20 UTC till 14 kl. 22 UTC
Vind 15 kt från nord/nordväst

TAF: LICR 141700Z 1418/1518 34018G28KT 9999 SCT030 BECMG 1420/1422 34515KT

Aktuella väderrapporter och prognoser från 4000 flygplatser (METAR- och TAF-rapporter).

De tillgängliga stationerna syns som gula och röda prickar på kartan.

För musen över prickarna för att se namnen på stationerna.

Klicka sedan för att få väderrapporter och prognoser.

För att ändra kartan: Klicka på de gröna knapparna med ett svart kors på för att zooma in; den gröna knappen med ett streck på för att zooma ut; eller på de gröna pilarna för angränsande kartor.


METAR-TAF: